sensor_id;sensor_type;location;lat;lon;timestamp;P1;durP1;ratioP1;P2;durP2;ratioP2
9958;SDS011;5019;48.012;7.812;2022-08-19T00:01:36;8.43;;;7.03;;
9958;SDS011;5019;48.012;7.812;2022-08-19T00:04:03;10.83;;;6.17;;
9958;SDS011;5019;48.012;7.812;2022-08-19T00:06:30;9.40;;;7.00;;
9958;SDS011;5019;48.012;7.812;2022-08-19T00:08:56;9.70;;;8.67;;
9958;SDS011;5019;48.012;7.812;2022-08-19T00:11:22;7.60;;;6.90;;
9958;SDS011;5019;48.012;7.812;2022-08-19T00:13:49;9.30;;;7.27;;
9958;SDS011;5019;48.012;7.812;2022-08-19T00:16:18;9.33;;;8.13;;
9958;SDS011;5019;48.012;7.812;2022-08-19T00:18:44;7.70;;;6.80;;
9958;SDS011;5019;48.012;7.812;2022-08-19T00:21:10;9.30;;;7.30;;
9958;SDS011;5019;48.012;7.812;2022-08-19T00:23:36;8.60;;;7.00;;
9958;SDS011;5019;48.012;7.812;2022-08-19T00:26:03;8.50;;;7.20;;
9958;SDS011;5019;48.012;7.812;2022-08-19T00:28:30;8.20;;;7.37;;
9958;SDS011;5019;48.012;7.812;2022-08-19T00:30:56;10.17;;;8.13;;
9958;SDS011;5019;48.012;7.812;2022-08-19T00:33:22;8.93;;;7.40;;
9958;SDS011;5019;48.012;7.812;2022-08-19T00:35:48;10.70;;;7.53;;
9958;SDS011;5019;48.012;7.812;2022-08-19T00:38:14;8.93;;;7.67;;
9958;SDS011;5019;48.012;7.812;2022-08-19T00:40:41;11.73;;;8.97;;
9958;SDS011;5019;48.012;7.812;2022-08-19T00:43:10;8.90;;;8.00;;
9958;SDS011;5019;48.012;7.812;2022-08-19T00:45:38;10.03;;;7.90;;
9958;SDS011;5019;48.012;7.812;2022-08-19T00:48:07;18.80;;;9.17;;
9958;SDS011;5019;48.012;7.812;2022-08-19T00:50:33;8.33;;;7.53;;
9958;SDS011;5019;48.012;7.812;2022-08-19T00:53:00;9.50;;;8.27;;
9958;SDS011;5019;48.012;7.812;2022-08-19T00:55:28;10.30;;;7.70;;
9958;SDS011;5019;48.012;7.812;2022-08-19T00:58:00;9.30;;;7.80;;
9958;SDS011;5019;48.012;7.812;2022-08-19T01:00:28;9.57;;;7.73;;
9958;SDS011;5019;48.012;7.812;2022-08-19T01:02:54;8.80;;;7.23;;
9958;SDS011;5019;48.012;7.812;2022-08-19T01:05:21;11.40;;;9.13;;
9958;SDS011;5019;48.012;7.812;2022-08-19T01:07:48;10.10;;;8.30;;
9958;SDS011;5019;48.012;7.812;2022-08-19T01:10:16;8.47;;;7.53;;
9958;SDS011;5019;48.012;7.812;2022-08-19T01:12:43;10.20;;;8.50;;
9958;SDS011;5019;48.012;7.812;2022-08-19T01:15:10;9.10;;;7.73;;
9958;SDS011;5019;48.012;7.812;2022-08-19T01:17:38;8.33;;;7.33;;
9958;SDS011;5019;48.012;7.812;2022-08-19T01:20:05;9.87;;;8.00;;
9958;SDS011;5019;48.012;7.812;2022-08-19T01:22:43;10.33;;;6.83;;
9958;SDS011;5019;48.012;7.812;2022-08-19T01:25:09;9.37;;;7.57;;
9958;SDS011;5019;48.012;7.812;2022-08-19T01:27:40;13.03;;;7.97;;
9958;SDS011;5019;48.012;7.812;2022-08-19T01:30:07;8.13;;;7.33;;
9958;SDS011;5019;48.012;7.812;2022-08-19T01:32:33;8.93;;;8.03;;
9958;SDS011;5019;48.012;7.812;2022-08-19T01:35:00;9.00;;;7.87;;
9958;SDS011;5019;48.012;7.812;2022-08-19T01:37:27;9.90;;;8.47;;
9958;SDS011;5019;48.012;7.812;2022-08-19T01:39:54;8.80;;;7.77;;
9958;SDS011;5019;48.012;7.812;2022-08-19T01:42:20;9.23;;;8.27;;
9958;SDS011;5019;48.012;7.812;2022-08-19T01:44:47;13.77;;;8.70;;
9958;SDS011;5019;48.012;7.812;2022-08-19T01:47:13;9.00;;;7.90;;
9958;SDS011;5019;48.012;7.812;2022-08-19T01:49:41;9.00;;;8.07;;
9958;SDS011;5019;48.012;7.812;2022-08-19T01:52:07;12.57;;;9.03;;
9958;SDS011;5019;48.012;7.812;2022-08-19T01:54:33;12.37;;;8.90;;
9958;SDS011;5019;48.012;7.812;2022-08-19T01:57:07;9.37;;;8.47;;
9958;SDS011;5019;48.012;7.812;2022-08-19T01:59:34;9.90;;;8.80;;
9958;SDS011;5019;48.012;7.812;2022-08-19T02:02:01;11.37;;;8.60;;
9958;SDS011;5019;48.012;7.812;2022-08-19T02:04:27;11.00;;;8.93;;
9958;SDS011;5019;48.012;7.812;2022-08-19T02:06:53;9.60;;;8.10;;
9958;SDS011;5019;48.012;7.812;2022-08-19T02:09:19;11.90;;;8.90;;
9958;SDS011;5019;48.012;7.812;2022-08-19T02:11:45;10.37;;;9.27;;
9958;SDS011;5019;48.012;7.812;2022-08-19T02:14:11;12.20;;;9.17;;
9958;SDS011;5019;48.012;7.812;2022-08-19T02:16:38;9.70;;;8.70;;
9958;SDS011;5019;48.012;7.812;2022-08-19T02:19:05;10.13;;;9.10;;
9958;SDS011;5019;48.012;7.812;2022-08-19T02:21:31;9.90;;;8.90;;
9958;SDS011;5019;48.012;7.812;2022-08-19T02:23:57;10.00;;;8.97;;
9958;SDS011;5019;48.012;7.812;2022-08-19T02:26:23;10.30;;;8.53;;
9958;SDS011;5019;48.012;7.812;2022-08-19T02:28:51;14.37;;;10.20;;
9958;SDS011;5019;48.012;7.812;2022-08-19T02:31:19;13.60;;;11.50;;
9958;SDS011;5019;48.012;7.812;2022-08-19T02:33:46;10.77;;;9.17;;
9958;SDS011;5019;48.012;7.812;2022-08-19T02:36:12;11.47;;;9.37;;
9958;SDS011;5019;48.012;7.812;2022-08-19T02:38:39;14.53;;;11.80;;
9958;SDS011;5019;48.012;7.812;2022-08-19T02:41:08;12.70;;;10.53;;
9958;SDS011;5019;48.012;7.812;2022-08-19T02:43:36;11.53;;;9.57;;
9958;SDS011;5019;48.012;7.812;2022-08-19T02:46:19;11.10;;;9.33;;
9958;SDS011;5019;48.012;7.812;2022-08-19T02:48:50;12.93;;;9.30;;
9958;SDS011;5019;48.012;7.812;2022-08-19T02:51:20;10.23;;;9.23;;
9958;SDS011;5019;48.012;7.812;2022-08-19T02:53:46;12.60;;;9.87;;
9958;SDS011;5019;48.012;7.812;2022-08-19T02:56:12;15.97;;;13.00;;
9958;SDS011;5019;48.012;7.812;2022-08-19T02:58:38;24.70;;;19.57;;
9958;SDS011;5019;48.012;7.812;2022-08-19T03:01:04;10.73;;;9.20;;
9958;SDS011;5019;48.012;7.812;2022-08-19T03:03:30;16.53;;;12.97;;
9958;SDS011;5019;48.012;7.812;2022-08-19T03:06:10;13.17;;;10.90;;
9958;SDS011;5019;48.012;7.812;2022-08-19T03:08:38;17.00;;;12.83;;
9958;SDS011;5019;48.012;7.812;2022-08-19T03:11:04;15.37;;;12.20;;
9958;SDS011;5019;48.012;7.812;2022-08-19T03:13:31;21.70;;;16.60;;
9958;SDS011;5019;48.012;7.812;2022-08-19T03:15:57;17.57;;;12.90;;
9958;SDS011;5019;48.012;7.812;2022-08-19T03:18:23;13.47;;;12.07;;
9958;SDS011;5019;48.012;7.812;2022-08-19T03:20:50;20.13;;;15.53;;
9958;SDS011;5019;48.012;7.812;2022-08-19T03:23:17;17.90;;;11.53;;
9958;SDS011;5019;48.012;7.812;2022-08-19T03:25:46;12.83;;;11.00;;
9958;SDS011;5019;48.012;7.812;2022-08-19T03:28:12;24.60;;;20.47;;
9958;SDS011;5019;48.012;7.812;2022-08-19T03:30:39;17.67;;;15.13;;
9958;SDS011;5019;48.012;7.812;2022-08-19T03:33:06;21.27;;;17.37;;
9958;SDS011;5019;48.012;7.812;2022-08-19T03:35:32;17.27;;;13.10;;
9958;SDS011;5019;48.012;7.812;2022-08-19T03:38:01;31.10;;;18.03;;
9958;SDS011;5019;48.012;7.812;2022-08-19T03:40:27;21.60;;;13.90;;
9958;SDS011;5019;48.012;7.812;2022-08-19T03:42:55;19.10;;;14.50;;
9958;SDS011;5019;48.012;7.812;2022-08-19T03:45:21;14.17;;;11.90;;
9958;SDS011;5019;48.012;7.812;2022-08-19T03:47:47;16.20;;;11.20;;
9958;SDS011;5019;48.012;7.812;2022-08-19T03:50:13;15.80;;;13.17;;
9958;SDS011;5019;48.012;7.812;2022-08-19T03:52:39;29.63;;;23.80;;
9958;SDS011;5019;48.012;7.812;2022-08-19T03:55:06;16.67;;;14.93;;
9958;SDS011;5019;48.012;7.812;2022-08-19T03:57:33;17.63;;;14.93;;
9958;SDS011;5019;48.012;7.812;2022-08-19T03:59:59;11.70;;;9.87;;
9958;SDS011;5019;48.012;7.812;2022-08-19T04:02:25;15.53;;;12.10;;
9958;SDS011;5019;48.012;7.812;2022-08-19T04:04:52;13.80;;;12.30;;
9958;SDS011;5019;48.012;7.812;2022-08-19T04:07:19;11.87;;;10.03;;
9958;SDS011;5019;48.012;7.812;2022-08-19T04:09:46;18.73;;;11.70;;
9958;SDS011;5019;48.012;7.812;2022-08-19T04:12:12;11.80;;;10.60;;
9958;SDS011;5019;48.012;7.812;2022-08-19T04:14:40;16.17;;;14.47;;
9958;SDS011;5019;48.012;7.812;2022-08-19T04:17:06;12.20;;;10.90;;
9958;SDS011;5019;48.012;7.812;2022-08-19T04:19:33;12.33;;;10.63;;
9958;SDS011;5019;48.012;7.812;2022-08-19T04:21:59;16.03;;;10.33;;
9958;SDS011;5019;48.012;7.812;2022-08-19T04:24:26;20.53;;;16.87;;
9958;SDS011;5019;48.012;7.812;2022-08-19T04:26:52;15.63;;;13.67;;
9958;SDS011;5019;48.012;7.812;2022-08-19T04:29:19;12.80;;;10.07;;
9958;SDS011;5019;48.012;7.812;2022-08-19T04:31:46;13.93;;;12.17;;
9958;SDS011;5019;48.012;7.812;2022-08-19T04:34:13;16.67;;;12.50;;
9958;SDS011;5019;48.012;7.812;2022-08-19T04:36:40;18.60;;;13.80;;
9958;SDS011;5019;48.012;7.812;2022-08-19T04:39:08;16.07;;;11.17;;
9958;SDS011;5019;48.012;7.812;2022-08-19T04:41:34;18.30;;;11.37;;
9958;SDS011;5019;48.012;7.812;2022-08-19T04:44:19;16.97;;;12.37;;
9958;SDS011;5019;48.012;7.812;2022-08-19T04:46:46;14.17;;;10.63;;
9958;SDS011;5019;48.012;7.812;2022-08-19T04:49:16;15.53;;;10.10;;
9958;SDS011;5019;48.012;7.812;2022-08-19T04:51:43;12.63;;;11.33;;
9958;SDS011;5019;48.012;7.812;2022-08-19T04:54:10;14.57;;;11.10;;
9958;SDS011;5019;48.012;7.812;2022-08-19T04:56:38;13.90;;;11.40;;
9958;SDS011;5019;48.012;7.812;2022-08-19T04:59:04;13.97;;;10.57;;
9958;SDS011;5019;48.012;7.812;2022-08-19T05:01:31;13.60;;;10.63;;
9958;SDS011;5019;48.012;7.812;2022-08-19T05:03:58;12.30;;;9.40;;
9958;SDS011;5019;48.012;7.812;2022-08-19T05:06:24;13.20;;;11.23;;
9958;SDS011;5019;48.012;7.812;2022-08-19T05:08:51;13.33;;;11.13;;
9958;SDS011;5019;48.012;7.812;2022-08-19T05:11:18;16.93;;;11.80;;
9958;SDS011;5019;48.012;7.812;2022-08-19T05:13:45;14.10;;;11.40;;
9958;SDS011;5019;48.012;7.812;2022-08-19T05:16:12;11.97;;;10.73;;
9958;SDS011;5019;48.012;7.812;2022-08-19T05:18:39;15.10;;;12.10;;
9958;SDS011;5019;48.012;7.812;2022-08-19T05:21:25;14.63;;;12.40;;
9958;SDS011;5019;48.012;7.812;2022-08-19T05:24:10;15.43;;;12.10;;
9958;SDS011;5019;48.012;7.812;2022-08-19T05:26:36;13.23;;;11.17;;
9958;SDS011;5019;48.012;7.812;2022-08-19T05:29:03;16.70;;;12.53;;
9958;SDS011;5019;48.012;7.812;2022-08-19T05:31:29;17.93;;;10.67;;
9958;SDS011;5019;48.012;7.812;2022-08-19T05:33:55;14.80;;;13.30;;
9958;SDS011;5019;48.012;7.812;2022-08-19T05:36:24;13.87;;;10.93;;
9958;SDS011;5019;48.012;7.812;2022-08-19T05:38:50;14.20;;;11.37;;
9958;SDS011;5019;48.012;7.812;2022-08-19T05:41:18;15.20;;;12.30;;
9958;SDS011;5019;48.012;7.812;2022-08-19T05:43:44;13.00;;;11.17;;
9958;SDS011;5019;48.012;7.812;2022-08-19T05:46:16;12.43;;;9.83;;
9958;SDS011;5019;48.012;7.812;2022-08-19T05:48:43;12.77;;;10.50;;
9958;SDS011;5019;48.012;7.812;2022-08-19T05:51:09;15.50;;;10.80;;
9958;SDS011;5019;48.012;7.812;2022-08-19T05:53:36;15.47;;;11.00;;
9958;SDS011;5019;48.012;7.812;2022-08-19T05:56:06;13.60;;;10.37;;
9958;SDS011;5019;48.012;7.812;2022-08-19T05:58:32;15.47;;;10.47;;
9958;SDS011;5019;48.012;7.812;2022-08-19T06:00:58;12.43;;;10.40;;
9958;SDS011;5019;48.012;7.812;2022-08-19T06:03:30;14.93;;;11.60;;
9958;SDS011;5019;48.012;7.812;2022-08-19T06:05:56;14.30;;;10.50;;
9958;SDS011;5019;48.012;7.812;2022-08-19T06:08:23;13.13;;;10.50;;
9958;SDS011;5019;48.012;7.812;2022-08-19T06:10:49;13.50;;;10.27;;
9958;SDS011;5019;48.012;7.812;2022-08-19T06:13:15;13.20;;;9.80;;
9958;SDS011;5019;48.012;7.812;2022-08-19T06:15:43;12.07;;;10.37;;
9958;SDS011;5019;48.012;7.812;2022-08-19T06:18:09;11.27;;;9.97;;
9958;SDS011;5019;48.012;7.812;2022-08-19T06:20:35;12.03;;;10.47;;
9958;SDS011;5019;48.012;7.812;2022-08-19T06:23:01;10.97;;;9.80;;
9958;SDS011;5019;48.012;7.812;2022-08-19T06:25:27;10.83;;;9.37;;
9958;SDS011;5019;48.012;7.812;2022-08-19T06:27:53;13.80;;;11.13;;
9958;SDS011;5019;48.012;7.812;2022-08-19T06:30:19;12.43;;;10.53;;
9958;SDS011;5019;48.012;7.812;2022-08-19T06:32:45;10.73;;;9.50;;
9958;SDS011;5019;48.012;7.812;2022-08-19T06:35:11;13.90;;;10.37;;
9958;SDS011;5019;48.012;7.812;2022-08-19T06:37:39;10.70;;;9.00;;
9958;SDS011;5019;48.012;7.812;2022-08-19T06:40:06;11.83;;;9.80;;
9958;SDS011;5019;48.012;7.812;2022-08-19T06:42:33;11.50;;;9.90;;
9958;SDS011;5019;48.012;7.812;2022-08-19T06:44:59;15.27;;;11.10;;
9958;SDS011;5019;48.012;7.812;2022-08-19T06:47:28;13.40;;;11.60;;
9958;SDS011;5019;48.012;7.812;2022-08-19T06:49:57;10.47;;;9.40;;
9958;SDS011;5019;48.012;7.812;2022-08-19T06:52:31;11.37;;;9.07;;
9958;SDS011;5019;48.012;7.812;2022-08-19T06:54:58;9.27;;;8.30;;
9958;SDS011;5019;48.012;7.812;2022-08-19T06:57:25;12.50;;;9.73;;
9958;SDS011;5019;48.012;7.812;2022-08-19T06:59:51;10.77;;;9.03;;
9958;SDS011;5019;48.012;7.812;2022-08-19T07:02:18;12.00;;;9.57;;
9958;SDS011;5019;48.012;7.812;2022-08-19T07:04:45;11.23;;;9.87;;
9958;SDS011;5019;48.012;7.812;2022-08-19T07:07:12;9.93;;;8.93;;
9958;SDS011;5019;48.012;7.812;2022-08-19T07:09:40;14.37;;;9.50;;
9958;SDS011;5019;48.012;7.812;2022-08-19T07:12:07;11.13;;;8.93;;
9958;SDS011;5019;48.012;7.812;2022-08-19T07:14:34;9.83;;;8.53;;
9958;SDS011;5019;48.012;7.812;2022-08-19T07:17:02;10.73;;;8.90;;
9958;SDS011;5019;48.012;7.812;2022-08-19T07:19:29;15.33;;;9.87;;
9958;SDS011;5019;48.012;7.812;2022-08-19T07:21:56;12.33;;;9.97;;
9958;SDS011;5019;48.012;7.812;2022-08-19T07:24:25;10.17;;;9.07;;
9958;SDS011;5019;48.012;7.812;2022-08-19T07:26:52;10.70;;;8.53;;
9958;SDS011;5019;48.012;7.812;2022-08-19T07:29:19;11.30;;;9.43;;
9958;SDS011;5019;48.012;7.812;2022-08-19T07:31:47;13.90;;;10.33;;
9958;SDS011;5019;48.012;7.812;2022-08-19T07:34:13;9.60;;;8.47;;
9958;SDS011;5019;48.012;7.812;2022-08-19T07:36:41;12.07;;;9.07;;
9958;SDS011;5019;48.012;7.812;2022-08-19T07:39:08;12.80;;;9.67;;
9958;SDS011;5019;48.012;7.812;2022-08-19T07:41:35;14.30;;;10.40;;
9958;SDS011;5019;48.012;7.812;2022-08-19T07:44:02;10.53;;;8.93;;
9958;SDS011;5019;48.012;7.812;2022-08-19T07:46:29;11.40;;;9.50;;
9958;SDS011;5019;48.012;7.812;2022-08-19T07:48:57;9.47;;;8.47;;
9958;SDS011;5019;48.012;7.812;2022-08-19T07:51:23;10.37;;;8.77;;
9958;SDS011;5019;48.012;7.812;2022-08-19T07:53:50;10.80;;;9.60;;
9958;SDS011;5019;48.012;7.812;2022-08-19T07:56:17;14.97;;;11.30;;
9958;SDS011;5019;48.012;7.812;2022-08-19T07:58:44;9.83;;;8.83;;
9958;SDS011;5019;48.012;7.812;2022-08-19T08:01:12;11.43;;;9.43;;
9958;SDS011;5019;48.012;7.812;2022-08-19T08:03:38;13.10;;;10.70;;
9958;SDS011;5019;48.012;7.812;2022-08-19T08:06:23;11.50;;;9.77;;
9958;SDS011;5019;48.012;7.812;2022-08-19T08:09:08;11.70;;;10.30;;
9958;SDS011;5019;48.012;7.812;2022-08-19T08:11:46;15.20;;;10.70;;
9958;SDS011;5019;48.012;7.812;2022-08-19T08:14:18;13.07;;;11.37;;
9958;SDS011;5019;48.012;7.812;2022-08-19T08:16:45;15.83;;;11.87;;
9958;SDS011;5019;48.012;7.812;2022-08-19T08:19:12;14.87;;;11.67;;
9958;SDS011;5019;48.012;7.812;2022-08-19T08:21:40;12.20;;;10.90;;
9958;SDS011;5019;48.012;7.812;2022-08-19T08:24:06;15.03;;;13.03;;
9958;SDS011;5019;48.012;7.812;2022-08-19T08:26:32;16.30;;;12.13;;
9958;SDS011;5019;48.012;7.812;2022-08-19T08:28:58;13.73;;;11.40;;
9958;SDS011;5019;48.012;7.812;2022-08-19T08:31:24;16.90;;;12.87;;
9958;SDS011;5019;48.012;7.812;2022-08-19T08:33:51;14.77;;;13.13;;
9958;SDS011;5019;48.012;7.812;2022-08-19T08:36:17;15.20;;;11.80;;
9958;SDS011;5019;48.012;7.812;2022-08-19T08:38:44;15.73;;;13.43;;
9958;SDS011;5019;48.012;7.812;2022-08-19T08:43:44;15.70;;;12.50;;
9958;SDS011;5019;48.012;7.812;2022-08-19T08:46:18;15.87;;;12.27;;
9958;SDS011;5019;48.012;7.812;2022-08-19T08:48:49;16.70;;;13.43;;
9958;SDS011;5019;48.012;7.812;2022-08-19T08:51:37;17.77;;;13.53;;
9958;SDS011;5019;48.012;7.812;2022-08-19T08:54:04;16.33;;;14.57;;
9958;SDS011;5019;48.012;7.812;2022-08-19T08:56:31;23.67;;;14.63;;
9958;SDS011;5019;48.012;7.812;2022-08-19T08:58:59;17.60;;;12.90;;
9958;SDS011;5019;48.012;7.812;2022-08-19T09:01:26;20.63;;;15.10;;
9958;SDS011;5019;48.012;7.812;2022-08-19T09:03:52;21.43;;;13.83;;
9958;SDS011;5019;48.012;7.812;2022-08-19T09:08:48;16.87;;;13.17;;
9958;SDS011;5019;48.012;7.812;2022-08-19T09:11:19;16.77;;;13.80;;
9958;SDS011;5019;48.012;7.812;2022-08-19T09:16:25;15.90;;;13.43;;
9958;SDS011;5019;48.012;7.812;2022-08-19T09:18:53;15.90;;;13.40;;
9958;SDS011;5019;48.012;7.812;2022-08-19T09:21:20;19.80;;;14.80;;
9958;SDS011;5019;48.012;7.812;2022-08-19T09:23:47;17.80;;;13.90;;
9958;SDS011;5019;48.012;7.812;2022-08-19T09:26:16;18.27;;;14.70;;
9958;SDS011;5019;48.012;7.812;2022-08-19T09:28:43;18.60;;;16.60;;
9958;SDS011;5019;48.012;7.812;2022-08-19T09:31:12;17.83;;;15.00;;
9958;SDS011;5019;48.012;7.812;2022-08-19T09:33:39;18.10;;;14.30;;
9958;SDS011;5019;48.012;7.812;2022-08-19T09:36:09;17.13;;;14.47;;
9958;SDS011;5019;48.012;7.812;2022-08-19T09:38:35;20.17;;;15.33;;
9958;SDS011;5019;48.012;7.812;2022-08-19T09:41:06;21.63;;;14.33;;
9958;SDS011;5019;48.012;7.812;2022-08-19T09:43:32;21.20;;;15.30;;
9958;SDS011;5019;48.012;7.812;2022-08-19T09:46:01;22.03;;;14.17;;
9958;SDS011;5019;48.012;7.812;2022-08-19T09:48:28;19.73;;;15.60;;
9958;SDS011;5019;48.012;7.812;2022-08-19T09:50:54;19.37;;;15.30;;
9958;SDS011;5019;48.012;7.812;2022-08-19T09:53:20;18.67;;;13.43;;
9958;SDS011;5019;48.012;7.812;2022-08-19T09:55:47;18.27;;;15.53;;
9958;SDS011;5019;48.012;7.812;2022-08-19T09:58:14;22.47;;;15.97;;
9958;SDS011;5019;48.012;7.812;2022-08-19T10:00:40;20.77;;;16.27;;
9958;SDS011;5019;48.012;7.812;2022-08-19T10:03:06;24.23;;;15.67;;
9958;SDS011;5019;48.012;7.812;2022-08-19T10:05:32;20.77;;;16.67;;
9958;SDS011;5019;48.012;7.812;2022-08-19T10:08:13;21.00;;;16.73;;
9958;SDS011;5019;48.012;7.812;2022-08-19T10:10:39;20.33;;;16.10;;
9958;SDS011;5019;48.012;7.812;2022-08-19T10:13:08;26.27;;;16.80;;
9958;SDS011;5019;48.012;7.812;2022-08-19T10:15:34;24.57;;;16.77;;
9958;SDS011;5019;48.012;7.812;2022-08-19T10:18:00;20.10;;;15.90;;
9958;SDS011;5019;48.012;7.812;2022-08-19T10:20:27;21.30;;;15.20;;
9958;SDS011;5019;48.012;7.812;2022-08-19T10:22:54;18.80;;;15.80;;
9958;SDS011;5019;48.012;7.812;2022-08-19T10:25:21;20.17;;;15.90;;
9958;SDS011;5019;48.012;7.812;2022-08-19T10:27:47;20.80;;;16.63;;
9958;SDS011;5019;48.012;7.812;2022-08-19T10:30:13;20.37;;;15.83;;
9958;SDS011;5019;48.012;7.812;2022-08-19T10:32:39;19.00;;;15.33;;
9958;SDS011;5019;48.012;7.812;2022-08-19T10:35:05;18.87;;;15.83;;
9958;SDS011;5019;48.012;7.812;2022-08-19T10:37:33;23.80;;;15.30;;
9958;SDS011;5019;48.012;7.812;2022-08-19T10:39:59;19.83;;;16.23;;
9958;SDS011;5019;48.012;7.812;2022-08-19T10:42:27;23.50;;;17.50;;
9958;SDS011;5019;48.012;7.812;2022-08-19T10:44:53;20.17;;;16.50;;
9958;SDS011;5019;48.012;7.812;2022-08-19T10:47:19;18.83;;;15.27;;
9958;SDS011;5019;48.012;7.812;2022-08-19T10:49:46;22.33;;;16.50;;
9958;SDS011;5019;48.012;7.812;2022-08-19T10:52:32;22.13;;;17.20;;
9958;SDS011;5019;48.012;7.812;2022-08-19T10:54:58;20.90;;;15.70;;
9958;SDS011;5019;48.012;7.812;2022-08-19T10:57:43;20.47;;;17.27;;
9958;SDS011;5019;48.012;7.812;2022-08-19T11:00:09;22.40;;;18.27;;
9958;SDS011;5019;48.012;7.812;2022-08-19T11:02:35;20.73;;;14.33;;
9958;SDS011;5019;48.012;7.812;2022-08-19T11:05:01;20.37;;;16.50;;
9958;SDS011;5019;48.012;7.812;2022-08-19T11:07:27;22.80;;;16.97;;
9958;SDS011;5019;48.012;7.812;2022-08-19T11:09:53;19.70;;;16.57;;
9958;SDS011;5019;48.012;7.812;2022-08-19T11:12:19;25.93;;;17.67;;
9958;SDS011;5019;48.012;7.812;2022-08-19T11:14:46;24.33;;;17.47;;
9958;SDS011;5019;48.012;7.812;2022-08-19T11:17:14;22.13;;;16.70;;
9958;SDS011;5019;48.012;7.812;2022-08-19T11:19:41;19.27;;;15.27;;
9958;SDS011;5019;48.012;7.812;2022-08-19T11:22:08;17.00;;;14.40;;
9958;SDS011;5019;48.012;7.812;2022-08-19T11:24:35;21.77;;;17.50;;
9958;SDS011;5019;48.012;7.812;2022-08-19T11:27:06;19.47;;;16.93;;
9958;SDS011;5019;48.012;7.812;2022-08-19T11:29:32;27.53;;;18.70;;
9958;SDS011;5019;48.012;7.812;2022-08-19T11:31:59;22.40;;;17.03;;
9958;SDS011;5019;48.012;7.812;2022-08-19T11:34:26;23.73;;;17.37;;
9958;SDS011;5019;48.012;7.812;2022-08-19T11:36:53;22.50;;;16.60;;
9958;SDS011;5019;48.012;7.812;2022-08-19T11:39:23;20.03;;;17.00;;
9958;SDS011;5019;48.012;7.812;2022-08-19T11:41:50;23.60;;;18.10;;
9958;SDS011;5019;48.012;7.812;2022-08-19T11:44:16;23.37;;;16.37;;
9958;SDS011;5019;48.012;7.812;2022-08-19T11:46:43;20.77;;;17.83;;
9958;SDS011;5019;48.012;7.812;2022-08-19T11:49:13;25.63;;;19.70;;
9958;SDS011;5019;48.012;7.812;2022-08-19T11:51:39;22.80;;;18.47;;
9958;SDS011;5019;48.012;7.812;2022-08-19T11:54:08;31.83;;;19.53;;
9958;SDS011;5019;48.012;7.812;2022-08-19T11:56:34;29.03;;;20.90;;
9958;SDS011;5019;48.012;7.812;2022-08-19T11:59:02;30.63;;;19.50;;
9958;SDS011;5019;48.012;7.812;2022-08-19T12:01:28;20.40;;;16.27;;
9958;SDS011;5019;48.012;7.812;2022-08-19T12:03:55;21.97;;;17.07;;
9958;SDS011;5019;48.012;7.812;2022-08-19T12:06:25;27.93;;;17.53;;
9958;SDS011;5019;48.012;7.812;2022-08-19T12:08:53;21.00;;;16.83;;
9958;SDS011;5019;48.012;7.812;2022-08-19T12:11:20;22.43;;;17.93;;
9958;SDS011;5019;48.012;7.812;2022-08-19T12:13:46;19.97;;;16.97;;
9958;SDS011;5019;48.012;7.812;2022-08-19T12:16:17;24.83;;;17.90;;
9958;SDS011;5019;48.012;7.812;2022-08-19T12:18:43;20.60;;;17.50;;
9958;SDS011;5019;48.012;7.812;2022-08-19T12:21:12;21.53;;;17.13;;
9958;SDS011;5019;48.012;7.812;2022-08-19T12:23:39;22.27;;;17.53;;
9958;SDS011;5019;48.012;7.812;2022-08-19T12:26:05;21.10;;;16.00;;
9958;SDS011;5019;48.012;7.812;2022-08-19T12:28:31;21.03;;;16.60;;
9958;SDS011;5019;48.012;7.812;2022-08-19T12:30:57;25.67;;;17.80;;
9958;SDS011;5019;48.012;7.812;2022-08-19T12:33:23;19.87;;;15.90;;
9958;SDS011;5019;48.012;7.812;2022-08-19T12:35:52;19.70;;;17.50;;
9958;SDS011;5019;48.012;7.812;2022-08-19T12:38:18;21.73;;;15.00;;
9958;SDS011;5019;48.012;7.812;2022-08-19T12:40:45;17.73;;;15.97;;
9958;SDS011;5019;48.012;7.812;2022-08-19T12:43:11;19.30;;;16.80;;
9958;SDS011;5019;48.012;7.812;2022-08-19T12:45:38;19.60;;;14.57;;
9958;SDS011;5019;48.012;7.812;2022-08-19T12:48:05;17.87;;;14.20;;
9958;SDS011;5019;48.012;7.812;2022-08-19T12:50:31;18.67;;;13.70;;
9958;SDS011;5019;48.012;7.812;2022-08-19T12:52:57;19.50;;;14.07;;
9958;SDS011;5019;48.012;7.812;2022-08-19T12:55:23;17.60;;;15.50;;
9958;SDS011;5019;48.012;7.812;2022-08-19T12:57:50;23.50;;;16.10;;
9958;SDS011;5019;48.012;7.812;2022-08-19T13:00:17;16.80;;;15.00;;
9958;SDS011;5019;48.012;7.812;2022-08-19T13:02:46;18.33;;;15.77;;
9958;SDS011;5019;48.012;7.812;2022-08-19T13:05:13;18.97;;;13.13;;
9958;SDS011;5019;48.012;7.812;2022-08-19T13:07:41;15.53;;;13.97;;
9958;SDS011;5019;48.012;7.812;2022-08-19T13:10:10;17.53;;;13.93;;
9958;SDS011;5019;48.012;7.812;2022-08-19T13:12:36;17.30;;;14.00;;
9958;SDS011;5019;48.012;7.812;2022-08-19T13:15:03;23.53;;;16.37;;
9958;SDS011;5019;48.012;7.812;2022-08-19T13:17:29;18.57;;;14.60;;
9958;SDS011;5019;48.012;7.812;2022-08-19T13:19:55;14.77;;;12.13;;
9958;SDS011;5019;48.012;7.812;2022-08-19T13:22:21;17.13;;;14.23;;
9958;SDS011;5019;48.012;7.812;2022-08-19T13:24:47;19.20;;;14.90;;
9958;SDS011;5019;48.012;7.812;2022-08-19T13:27:13;16.40;;;14.43;;
9958;SDS011;5019;48.012;7.812;2022-08-19T13:29:40;20.53;;;13.70;;
9958;SDS011;5019;48.012;7.812;2022-08-19T13:32:25;19.20;;;13.60;;
9958;SDS011;5019;48.012;7.812;2022-08-19T13:35:09;14.50;;;12.17;;
9958;SDS011;5019;48.012;7.812;2022-08-19T13:37:35;15.97;;;14.30;;
9958;SDS011;5019;48.012;7.812;2022-08-19T13:40:09;14.07;;;12.67;;
9958;SDS011;5019;48.012;7.812;2022-08-19T13:42:37;18.53;;;13.90;;
9958;SDS011;5019;48.012;7.812;2022-08-19T13:45:04;20.67;;;13.10;;
9958;SDS011;5019;48.012;7.812;2022-08-19T13:47:31;16.50;;;12.17;;
9958;SDS011;5019;48.012;7.812;2022-08-19T13:49:59;13.03;;;11.73;;
9958;SDS011;5019;48.012;7.812;2022-08-19T13:52:25;12.90;;;11.23;;
9958;SDS011;5019;48.012;7.812;2022-08-19T13:54:51;13.70;;;11.87;;
9958;SDS011;5019;48.012;7.812;2022-08-19T13:57:17;11.93;;;10.73;;
9958;SDS011;5019;48.012;7.812;2022-08-19T13:59:43;11.70;;;10.00;;
9958;SDS011;5019;48.012;7.812;2022-08-19T14:02:09;12.67;;;11.33;;
9958;SDS011;5019;48.012;7.812;2022-08-19T14:04:36;11.07;;;10.07;;
9958;SDS011;5019;48.012;7.812;2022-08-19T14:07:02;10.53;;;9.63;;
9958;SDS011;5019;48.012;7.812;2022-08-19T14:09:29;10.97;;;9.90;;
9958;SDS011;5019;48.012;7.812;2022-08-19T14:11:55;11.53;;;10.47;;
9958;SDS011;5019;48.012;7.812;2022-08-19T14:14:21;13.00;;;10.73;;
9958;SDS011;5019;48.012;7.812;2022-08-19T14:16:47;15.90;;;11.77;;
9958;SDS011;5019;48.012;7.812;2022-08-19T14:19:13;11.70;;;10.50;;
9958;SDS011;5019;48.012;7.812;2022-08-19T14:21:40;11.47;;;10.33;;
9958;SDS011;5019;48.012;7.812;2022-08-19T14:24:06;11.83;;;10.80;;
9958;SDS011;5019;48.012;7.812;2022-08-19T14:26:33;12.50;;;11.10;;
9958;SDS011;5019;48.012;7.812;2022-08-19T14:28:59;12.50;;;10.80;;
9958;SDS011;5019;48.012;7.812;2022-08-19T14:31:26;13.40;;;12.10;;
9958;SDS011;5019;48.012;7.812;2022-08-19T14:33:52;13.50;;;12.10;;
9958;SDS011;5019;48.012;7.812;2022-08-19T14:36:19;14.50;;;13.00;;
9958;SDS011;5019;48.012;7.812;2022-08-19T14:38:46;19.23;;;14.90;;
9958;SDS011;5019;48.012;7.812;2022-08-19T14:41:14;16.13;;;14.53;;
9958;SDS011;5019;48.012;7.812;2022-08-19T14:43:42;19.10;;;14.90;;
9958;SDS011;5019;48.012;7.812;2022-08-19T14:46:10;18.80;;;15.90;;
9958;SDS011;5019;48.012;7.812;2022-08-19T14:48:37;17.80;;;15.70;;
9958;SDS011;5019;48.012;7.812;2022-08-19T14:51:04;18.13;;;16.03;;
9958;SDS011;5019;48.012;7.812;2022-08-19T14:53:30;20.17;;;14.50;;
9958;SDS011;5019;48.012;7.812;2022-08-19T14:55:58;17.23;;;15.30;;
9958;SDS011;5019;48.012;7.812;2022-08-19T14:58:25;18.07;;;16.03;;
9958;SDS011;5019;48.012;7.812;2022-08-19T15:00:51;15.90;;;14.40;;
9958;SDS011;5019;48.012;7.812;2022-08-19T15:03:17;19.37;;;15.50;;